createdAt,value
2019-03-01T00:01:16.304Z,90.80
2019-03-01T00:03:45.447Z,90.90
2019-03-01T00:06:23.558Z,90.90
2019-03-01T00:09:18.066Z,90.80
2019-03-01T00:12:06.330Z,90.90
2019-03-01T00:15:03.727Z,90.80
2019-03-01T00:17:47.643Z,90.80
2019-03-01T00:20:28.341Z,90.80
2019-03-01T00:23:02.863Z,90.60
2019-03-01T00:25:49.498Z,90.40
2019-03-01T00:28:30.145Z,90.50
2019-03-01T00:31:17.092Z,90.60
2019-03-01T00:34:11.648Z,90.50
2019-03-01T00:36:52.496Z,90.60
2019-03-01T00:39:30.064Z,90.20
2019-03-01T00:42:07.468Z,90.20
2019-03-01T00:44:40.606Z,90.00
2019-03-01T00:47:09.013Z,89.90
2019-03-01T00:49:37.618Z,89.20
2019-03-01T00:52:06.435Z,89.20
2019-03-01T00:54:34.935Z,89.30
2019-03-01T00:57:03.504Z,89.50
2019-03-01T00:59:31.979Z,89.50
2019-03-01T01:02:00.377Z,89.70
2019-03-01T01:04:28.875Z,90.20
2019-03-01T01:06:57.279Z,89.80
2019-03-01T01:09:25.679Z,89.70
2019-03-01T01:11:54.184Z,89.70
2019-03-01T01:14:22.590Z,89.60
2019-03-01T01:16:51.008Z,89.40
2019-03-01T01:19:19.515Z,89.50
2019-03-01T01:21:48.063Z,89.60
2019-03-01T01:24:16.546Z,90.20
2019-03-01T01:26:44.982Z,89.50
2019-03-01T01:29:13.382Z,89.30
2019-03-01T01:31:41.794Z,89.40
2019-03-01T01:34:10.221Z,89.60
2019-03-01T01:36:38.644Z,89.60
2019-03-01T01:39:07.950Z,90.20
2019-03-01T01:41:36.387Z,89.70
2019-03-01T01:44:05.561Z,89.90
2019-03-01T01:46:34.040Z,89.30
2019-03-01T01:49:02.523Z,89.50
2019-03-01T01:51:30.942Z,89.40
2019-03-01T01:53:59.446Z,89.60
2019-03-01T01:56:27.966Z,89.40
2019-03-01T01:58:56.407Z,90.20
2019-03-01T02:01:24.887Z,89.70
2019-03-01T02:03:53.410Z,89.90
2019-03-01T02:06:21.807Z,89.50
2019-03-01T02:08:50.213Z,89.80
2019-03-01T02:11:18.651Z,90.00
2019-03-01T02:13:47.058Z,90.20
2019-03-01T02:16:15.608Z,90.00
2019-03-01T02:18:44.047Z,90.10
2019-03-01T02:21:12.522Z,90.00
2019-03-01T02:23:41.008Z,90.50
2019-03-01T02:26:09.462Z,90.00
2019-03-01T02:28:37.998Z,90.10
2019-03-01T02:31:08.651Z,90.00
2019-03-01T02:33:37.084Z,90.20
2019-03-01T02:36:05.499Z,90.20
2019-03-01T02:38:33.963Z,90.20
2019-03-01T02:41:02.431Z,90.30
2019-03-01T02:43:30.843Z,90.50
2019-03-01T02:45:59.292Z,90.40
2019-03-01T02:48:27.716Z,90.40
2019-03-01T02:50:56.119Z,90.60
2019-03-01T02:53:24.594Z,90.60
2019-03-01T02:55:54.304Z,90.50
2019-03-01T02:58:22.750Z,90.50
2019-03-01T03:00:51.201Z,90.40
2019-03-01T03:03:19.597Z,90.50
2019-03-01T03:05:52.100Z,90.70
2019-03-01T03:08:20.527Z,90.70
2019-03-01T03:10:49.007Z,90.70
2019-03-01T03:13:17.502Z,91.50
2019-03-01T03:15:47.485Z,91.10
2019-03-01T03:18:15.959Z,91.00
2019-03-01T03:20:44.466Z,91.00
2019-03-01T03:23:13.043Z,90.90
2019-03-01T03:25:41.534Z,91.00
2019-03-01T03:28:10.031Z,91.10
2019-03-01T03:30:38.437Z,90.90
2019-03-01T03:33:06.831Z,91.20
2019-03-01T03:35:35.357Z,91.20
2019-03-01T03:38:03.832Z,91.10
2019-03-01T03:40:32.232Z,91.00
2019-03-01T03:43:00.743Z,90.70
2019-03-01T03:45:29.274Z,91.00
2019-03-01T03:47:57.746Z,90.80
2019-03-01T03:50:26.269Z,91.20
2019-03-01T03:52:54.673Z,91.20
2019-03-01T03:55:23.078Z,91.40
2019-03-01T03:57:51.513Z,91.60
2019-03-01T04:00:24.706Z,91.80
2019-03-01T04:02:53.263Z,91.80
2019-03-01T04:05:21.719Z,91.60
2019-03-01T04:07:50.130Z,91.40
2019-03-01T04:10:18.711Z,91.40
2019-03-01T04:12:47.144Z,91.10
2019-03-01T04:15:16.678Z,91.40
2019-03-01T04:17:45.195Z,91.70
2019-03-01T04:20:16.100Z,91.60
2019-03-01T04:22:44.574Z,91.80
2019-03-01T04:25:13.005Z,91.50
2019-03-01T04:27:41.526Z,91.90
2019-03-01T04:30:17.423Z,91.80
2019-03-01T04:32:46.776Z,91.50
2019-03-01T04:35:15.571Z,91.20
2019-03-01T04:37:44.007Z,91.20
2019-03-01T04:40:15.995Z,91.00
2019-03-01T04:42:44.473Z,90.90
2019-03-01T04:45:14.417Z,90.80
2019-03-01T04:47:42.886Z,90.80
2019-03-01T04:50:12.208Z,91.10
2019-03-01T04:52:41.235Z,90.80
2019-03-01T04:55:12.948Z,91.00
2019-03-01T04:57:41.494Z,90.60
2019-03-01T05:00:15.796Z,90.40
2019-03-01T05:02:44.319Z,90.60
2019-03-01T05:05:12.963Z,90.60
2019-03-01T05:07:41.463Z,91.20
2019-03-01T05:10:11.711Z,91.10
2019-03-01T05:12:40.118Z,91.10
2019-03-01T05:15:16.894Z,91.30
2019-03-01T05:17:45.303Z,91.30
2019-03-01T05:20:13.786Z,91.20
2019-03-01T05:22:42.214Z,91.30
2019-03-01T05:25:11.266Z,91.10
2019-03-01T05:27:39.775Z,91.20
2019-03-01T05:30:18.495Z,91.20
2019-03-01T05:32:46.909Z,91.20
2019-03-01T05:35:15.353Z,91.30
2019-03-01T05:37:43.785Z,91.30
2019-03-01T05:40:14.683Z,91.20
2019-03-01T05:42:43.097Z,91.20
2019-03-01T05:45:26.753Z,91.20
2019-03-01T05:47:55.150Z,91.30
2019-03-01T05:50:23.690Z,91.30
2019-03-01T05:52:52.117Z,91.40
2019-03-01T05:55:20.527Z,91.30
2019-03-01T05:58:20.886Z,91.30
2019-03-01T06:00:51.951Z,91.10
2019-03-01T06:03:40.494Z,91.20
2019-03-01T06:06:11.933Z,91.10
2019-03-01T06:08:52.698Z,91.00
2019-03-01T06:11:33.248Z,91.10
2019-03-01T06:14:07.830Z,91.20
2019-03-01T06:17:03.221Z,91.20
2019-03-01T06:19:37.869Z,91.40
2019-03-01T06:22:36.887Z,91.40
2019-03-01T06:25:33.043Z,91.40
2019-03-01T06:28:36.314Z,91.50
2019-03-01T06:31:20.169Z,91.40
2019-03-01T06:34:22.416Z,91.30
2019-03-01T06:37:13.719Z,91.50
2019-03-01T06:40:27.119Z,91.50
2019-03-01T06:43:04.407Z,91.60
2019-03-01T06:46:00.170Z,91.70
2019-03-01T06:48:45.298Z,91.60
2019-03-01T06:51:15.374Z,91.80
2019-03-01T06:53:43.851Z,91.80
2019-03-01T06:56:12.287Z,91.70
2019-03-01T06:58:40.724Z,91.60
2019-03-01T07:01:10.812Z,91.40
2019-03-01T07:03:39.306Z,91.30
2019-03-01T07:06:07.714Z,91.20
2019-03-01T07:08:36.195Z,91.20
2019-03-01T07:11:04.678Z,91.20
2019-03-01T07:13:33.055Z,91.10
2019-03-01T07:16:01.589Z,91.20
2019-03-01T07:18:30.027Z,91.20
2019-03-01T07:20:58.510Z,91.30
2019-03-01T07:23:36.227Z,91.20
2019-03-01T07:25:57.020Z,91.20
2019-03-01T07:28:25.499Z,91.20
2019-03-01T07:30:53.981Z,91.30
2019-03-01T07:33:22.480Z,91.20
2019-03-01T07:35:50.962Z,91.20
2019-03-01T07:38:19.379Z,91.30
2019-03-01T07:40:47.819Z,91.30
2019-03-01T07:43:16.233Z,91.40
2019-03-01T07:45:44.863Z,91.20
2019-03-01T07:48:13.258Z,91.30
2019-03-01T07:50:41.673Z,91.40
2019-03-01T07:53:10.162Z,91.50
2019-03-01T07:55:38.645Z,91.70
2019-03-01T07:58:07.056Z,91.70
2019-03-01T08:00:35.570Z,91.60
2019-03-01T08:03:04.012Z,91.50
2019-03-01T08:05:35.594Z,91.40
2019-03-01T08:08:03.490Z,91.40
2019-03-01T08:10:32.266Z,91.10
2019-03-01T08:13:00.792Z,91.20
2019-03-01T08:15:29.229Z,91.20
2019-03-01T08:17:57.742Z,90.90
2019-03-01T08:20:26.158Z,91.00
2019-03-01T08:22:56.843Z,91.10
2019-03-01T08:25:24.819Z,91.10
2019-03-01T08:27:53.235Z,91.00
2019-03-01T08:30:21.781Z,90.90
2019-03-01T08:32:50.196Z,91.00
2019-03-01T08:35:19.131Z,90.90
2019-03-01T08:37:49.814Z,90.60
2019-03-01T08:40:18.465Z,90.80
2019-03-01T08:42:46.895Z,90.80
2019-03-01T08:45:20.273Z,91.00
2019-03-01T08:47:49.107Z,91.20
2019-03-01T08:50:17.781Z,91.10
2019-03-01T08:52:46.750Z,91.10
2019-03-01T08:55:17.986Z,91.20
2019-03-01T08:57:46.471Z,91.20
2019-03-01T09:00:17.791Z,91.00
2019-03-01T09:02:46.339Z,91.20
2019-03-01T09:05:14.890Z,91.20
2019-03-01T09:07:43.391Z,91.30
2019-03-01T09:10:14.302Z,91.10
2019-03-01T09:12:42.784Z,91.10
2019-03-01T09:15:15.610Z,91.20
2019-03-01T09:17:44.128Z,91.20
2019-03-01T09:20:14.540Z,91.30
2019-03-01T09:22:44.623Z,91.20
2019-03-01T09:25:14.698Z,91.30
2019-03-01T09:27:43.220Z,91.40
2019-03-01T09:30:23.043Z,91.40
2019-03-01T09:32:51.542Z,91.40
2019-03-01T09:35:29.878Z,91.30
2019-03-01T09:37:58.762Z,91.30
2019-03-01T09:40:29.016Z,91.20
2019-03-01T09:42:57.555Z,91.00
2019-03-01T09:45:35.627Z,90.80
2019-03-01T09:47:56.171Z,90.90
2019-03-01T09:50:24.691Z,91.00
2019-03-01T09:52:55.602Z,91.00
2019-03-01T09:55:24.543Z,91.00
2019-03-01T09:57:53.058Z,91.20
2019-03-01T10:00:24.810Z,91.20
2019-03-01T10:02:53.251Z,91.10
2019-03-01T10:05:21.794Z,91.00
2019-03-01T10:07:50.221Z,90.90
2019-03-01T10:10:30.088Z,91.10
2019-03-01T10:12:58.499Z,91.10
2019-03-01T10:15:26.911Z,90.80
2019-03-01T10:17:55.348Z,90.90
2019-03-01T10:20:23.802Z,90.70
2019-03-01T10:22:52.217Z,90.80
2019-03-01T10:25:21.310Z,91.10
2019-03-01T10:27:49.758Z,90.60
2019-03-01T10:30:25.373Z,90.60
2019-03-01T10:32:53.855Z,90.30
2019-03-01T10:35:22.319Z,90.20
2019-03-01T10:37:50.822Z,90.10
2019-03-01T10:40:20.662Z,89.80
2019-03-01T10:42:49.138Z,90.00
2019-03-01T10:45:26.686Z,89.90
2019-03-01T10:47:55.096Z,89.70
2019-03-01T10:50:23.532Z,89.70
2019-03-01T10:52:51.980Z,89.50
2019-03-01T10:55:23.063Z,89.50
2019-03-01T10:57:51.473Z,89.40
2019-03-01T11:00:22.498Z,89.40
2019-03-01T11:02:51.037Z,89.30
2019-03-01T11:05:19.710Z,89.70
2019-03-01T11:07:49.239Z,89.90
2019-03-01T11:10:23.502Z,89.90
2019-03-01T11:12:51.907Z,90.00
2019-03-01T11:15:20.419Z,89.50
2019-03-01T11:17:48.966Z,90.00
2019-03-01T11:20:18.283Z,89.70
2019-03-01T11:22:46.778Z,89.70
2019-03-01T11:25:19.722Z,89.40
2019-03-01T11:27:48.130Z,89.40
2019-03-01T11:30:28.302Z,89.00
2019-03-01T11:32:56.705Z,89.50
2019-03-01T11:35:25.251Z,89.20
2019-03-01T11:37:53.746Z,89.10
2019-03-01T11:40:25.119Z,88.70
2019-03-01T11:42:53.635Z,88.90
2019-03-01T11:45:22.078Z,88.80
2019-03-01T11:47:51.715Z,88.10
2019-03-01T11:50:21.940Z,88.40
2019-03-01T11:52:50.427Z,88.40
2019-03-01T11:55:18.939Z,89.00
2019-03-01T11:57:47.432Z,88.60
2019-03-01T12:00:23.402Z,88.50
2019-03-01T12:02:51.884Z,88.20
2019-03-01T12:05:21.010Z,88.00
2019-03-01T12:07:49.638Z,88.40
2019-03-01T12:10:20.643Z,87.80
2019-03-01T12:12:49.127Z,87.50
2019-03-01T12:15:17.582Z,87.00
2019-03-01T12:17:46.182Z,86.50
2019-03-01T12:20:33.782Z,87.30
2019-03-01T12:23:02.299Z,87.00
2019-03-01T12:25:30.787Z,86.10
2019-03-01T12:27:59.222Z,86.20
2019-03-01T12:30:27.703Z,87.50
2019-03-01T12:32:56.184Z,86.20
2019-03-01T12:35:24.762Z,86.20
2019-03-01T12:37:53.170Z,86.20
2019-03-01T12:40:26.684Z,86.60
2019-03-01T12:42:55.119Z,86.30
2019-03-01T12:45:23.571Z,85.30
2019-03-01T12:47:52.099Z,86.00
2019-03-01T12:50:20.538Z,85.50
2019-03-01T12:52:49.659Z,85.90
2019-03-01T12:55:20.514Z,85.70
2019-03-01T12:57:49.035Z,85.60
2019-03-01T13:00:35.742Z,85.40
2019-03-01T13:03:05.249Z,85.00
2019-03-01T13:05:34.268Z,85.20
2019-03-01T13:08:02.698Z,84.80
2019-03-01T13:10:40.278Z,84.80
2019-03-01T13:13:08.582Z,85.00
2019-03-01T13:15:37.163Z,84.90
2019-03-01T13:18:05.674Z,85.20
2019-03-01T13:20:37.264Z,84.90
2019-03-01T13:23:04.853Z,84.50
2019-03-01T13:25:34.443Z,84.60
2019-03-01T13:28:03.034Z,84.20
2019-03-01T13:30:32.728Z,84.00
2019-03-01T13:33:02.612Z,83.90
2019-03-01T13:35:31.571Z,83.20
2019-03-01T13:38:00.064Z,83.40
2019-03-01T13:40:28.526Z,83.60
2019-03-01T13:42:56.938Z,83.40
2019-03-01T13:45:26.294Z,83.40
2019-03-01T13:47:54.742Z,83.50
2019-03-01T13:50:23.294Z,84.20
2019-03-01T13:52:51.722Z,84.20
2019-03-01T13:55:22.192Z,84.30
2019-03-01T13:57:51.373Z,85.00
2019-03-01T14:00:21.989Z,84.90
2019-03-01T14:02:50.514Z,84.70
2019-03-01T14:05:18.921Z,85.10
2019-03-01T14:07:48.035Z,85.40
2019-03-01T14:10:25.315Z,85.00
2019-03-01T14:12:53.791Z,84.50
2019-03-01T14:15:22.206Z,84.40
2019-03-01T14:17:51.652Z,84.80
2019-03-01T14:20:21.384Z,85.20
2019-03-01T14:22:49.866Z,84.90
2019-03-01T14:25:18.438Z,84.80
2019-03-01T14:27:46.830Z,84.60
2019-03-01T14:30:18.612Z,84.60
2019-03-01T14:32:47.046Z,85.50
2019-03-01T14:35:15.568Z,85.40
2019-03-01T14:37:44.052Z,85.10
2019-03-01T14:40:14.500Z,84.90
2019-03-01T14:42:46.394Z,84.90
2019-03-01T14:45:18.711Z,85.00
2019-03-01T14:47:47.290Z,85.50
2019-03-01T14:50:17.911Z,85.50
2019-03-01T14:52:46.344Z,85.20
2019-03-01T14:55:19.859Z,85.50
2019-03-01T14:57:50.992Z,85.70
2019-03-01T15:00:22.716Z,85.40
2019-03-01T15:03:15.968Z,85.40
2019-03-01T15:05:42.116Z,85.20
2019-03-01T15:08:09.447Z,85.50
2019-03-01T15:10:37.986Z,85.40
2019-03-01T15:13:06.379Z,85.40
2019-03-01T15:15:34.790Z,85.40
2019-03-01T15:18:03.295Z,85.50
2019-03-01T15:20:31.710Z,85.70
2019-03-01T15:23:00.219Z,85.90
2019-03-01T15:25:28.746Z,86.30
2019-03-01T15:27:57.143Z,86.70
2019-03-01T15:30:25.622Z,87.20
2019-03-01T15:32:54.135Z,87.40
2019-03-01T15:35:22.538Z,87.50
2019-03-01T15:37:50.984Z,87.50
2019-03-01T15:40:19.419Z,87.50
2019-03-01T15:42:47.851Z,87.70
2019-03-01T15:45:16.347Z,87.20
2019-03-01T15:47:44.958Z,87.10
2019-03-01T15:50:14.322Z,87.00
2019-03-01T15:52:45.616Z,86.90
2019-03-01T15:55:12.948Z,87.00
2019-03-01T15:57:41.466Z,86.80
2019-03-01T16:00:15.842Z,87.00
2019-03-01T16:02:44.340Z,86.70
2019-03-01T16:05:13.962Z,86.60
2019-03-01T16:07:42.579Z,86.50
2019-03-01T16:10:15.908Z,86.70
2019-03-01T16:12:44.349Z,86.80
2019-03-01T16:15:14.364Z,86.70
2019-03-01T16:17:42.875Z,86.90
2019-03-01T16:20:16.464Z,86.70
2019-03-01T16:22:44.878Z,86.70
2019-03-01T16:25:17.161Z,86.90
2019-03-01T16:27:45.630Z,87.20
2019-03-01T16:30:17.589Z,87.50
2019-03-01T16:32:49.748Z,87.80
2019-03-01T16:35:22.286Z,87.90
2019-03-01T16:37:57.799Z,87.20
2019-03-01T16:40:25.551Z,87.60
2019-03-01T16:42:54.631Z,87.40
2019-03-01T16:45:23.441Z,87.50
2019-03-01T16:47:51.897Z,87.60
2019-03-01T16:50:20.683Z,87.50
2019-03-01T16:52:49.276Z,87.70
2019-03-01T16:55:28.829Z,88.00
2019-03-01T16:58:06.192Z,87.90
2019-03-01T17:00:27.582Z,87.70
2019-03-01T17:03:04.882Z,87.80
2019-03-01T17:05:35.735Z,88.00
2019-03-01T17:08:05.794Z,88.10
2019-03-01T17:10:33.466Z,87.70
2019-03-01T17:13:01.870Z,87.70
2019-03-01T17:15:30.903Z,87.80
2019-03-01T17:17:59.383Z,87.80
2019-03-01T17:20:27.819Z,87.70
2019-03-01T17:22:59.788Z,87.80
2019-03-01T17:25:26.868Z,87.60
2019-03-01T17:27:56.142Z,87.90
2019-03-01T17:30:27.417Z,88.00
2019-03-01T17:32:55.971Z,88.00
2019-03-01T17:35:24.442Z,88.20
2019-03-01T17:37:52.963Z,88.20
2019-03-01T17:40:21.523Z,88.00
2019-03-01T17:42:49.924Z,88.30
2019-03-01T17:45:22.437Z,88.60
2019-03-01T17:47:51.250Z,88.70
2019-03-01T17:50:19.661Z,88.90
2019-03-01T17:52:48.256Z,89.20
2019-03-01T17:55:18.958Z,89.00
2019-03-01T17:57:47.441Z,89.00
2019-03-01T18:00:41.634Z,89.20
2019-03-01T18:03:10.138Z,89.20
2019-03-01T18:05:40.708Z,89.20
2019-03-01T18:08:08.842Z,89.70
2019-03-01T18:10:37.280Z,90.00
2019-03-01T18:13:05.678Z,90.00
2019-03-01T18:15:34.170Z,90.00
2019-03-01T18:18:02.580Z,90.00
2019-03-01T18:20:33.873Z,89.90
2019-03-01T18:23:02.177Z,90.00
2019-03-01T18:25:31.463Z,90.10
2019-03-01T18:27:59.952Z,90.00
2019-03-01T18:30:33.360Z,90.00
2019-03-01T18:33:01.791Z,89.90
2019-03-01T18:35:30.208Z,90.10
2019-03-01T18:37:58.686Z,90.00
2019-03-01T18:40:27.186Z,90.00
2019-03-01T18:42:55.610Z,90.00
2019-03-01T18:45:27.710Z,90.00
2019-03-01T18:47:56.198Z,90.10
2019-03-01T18:50:34.970Z,90.10
2019-03-01T18:53:04.241Z,90.10
2019-03-01T18:55:32.859Z,90.20
2019-03-01T18:58:01.289Z,90.20
2019-03-01T19:00:36.945Z,90.30
2019-03-01T19:03:06.344Z,90.30
2019-03-01T19:05:36.642Z,90.40
2019-03-01T19:08:06.162Z,90.80
2019-03-01T19:10:35.405Z,90.50
2019-03-01T19:13:04.043Z,90.40
2019-03-01T19:15:32.459Z,90.50
2019-03-01T19:18:02.652Z,90.50
2019-03-01T19:20:46.187Z,90.50
2019-03-01T19:23:14.710Z,90.50
2019-03-01T19:25:43.123Z,90.60
2019-03-01T19:28:11.567Z,90.60
2019-03-01T19:30:40.097Z,90.60
2019-03-01T19:33:08.505Z,90.50
2019-03-01T19:35:36.997Z,90.60
2019-03-01T19:38:05.652Z,90.60
2019-03-01T19:40:34.231Z,90.70
2019-03-01T19:43:02.707Z,90.60
2019-03-01T19:45:31.240Z,90.60
2019-03-01T19:48:03.262Z,90.70
2019-03-01T19:50:30.303Z,90.60
2019-03-01T19:52:58.804Z,90.60
2019-03-01T19:55:27.290Z,90.60
2019-03-01T19:57:55.778Z,90.60
2019-03-01T20:00:34.396Z,90.70
2019-03-01T20:03:02.814Z,90.70
2019-03-01T20:05:35.270Z,90.60
2019-03-01T20:08:03.799Z,90.70
2019-03-01T20:10:32.226Z,90.80
2019-03-01T20:13:00.757Z,90.80
2019-03-01T20:15:30.266Z,90.80
2019-03-01T20:17:58.753Z,90.80
2019-03-01T20:20:29.901Z,90.80
2019-03-01T20:22:58.510Z,90.90
2019-03-01T20:25:26.991Z,90.90
2019-03-01T20:28:16.302Z,90.80
2019-03-01T20:30:44.913Z,90.80
2019-03-01T20:33:13.399Z,90.90
2019-03-01T20:35:41.855Z,90.80
2019-03-01T20:38:10.306Z,90.80
2019-03-01T20:40:38.706Z,90.90
2019-03-01T20:43:07.256Z,91.00
2019-03-01T20:45:38.137Z,91.00
2019-03-01T20:48:06.614Z,90.90
2019-03-01T20:50:36.566Z,90.80
2019-03-01T20:53:05.123Z,90.90
2019-03-01T20:55:36.967Z,91.00
2019-03-01T20:58:04.707Z,90.90
2019-03-01T21:00:33.124Z,90.80
2019-03-01T21:03:01.572Z,90.70
2019-03-01T21:05:30.558Z,90.80
2019-03-01T21:07:59.212Z,91.00
2019-03-01T21:10:29.369Z,90.90
2019-03-01T21:12:57.808Z,91.00
2019-03-01T21:15:26.319Z,90.90
2019-03-01T21:17:57.105Z,90.90
2019-03-01T21:20:25.101Z,90.90
2019-03-01T21:22:53.511Z,91.00
2019-03-01T21:25:23.177Z,90.80
2019-03-01T21:27:51.686Z,91.00
2019-03-01T21:30:25.189Z,90.60
2019-03-01T21:32:53.595Z,90.70
2019-03-01T21:35:22.102Z,90.70
2019-03-01T21:37:51.529Z,90.60
2019-03-01T21:40:20.064Z,90.40
2019-03-01T21:42:48.716Z,90.40
2019-03-01T21:45:21.465Z,90.50
2019-03-01T21:47:49.656Z,90.50
2019-03-01T21:50:18.328Z,90.50
2019-03-01T21:52:46.814Z,90.40
2019-03-01T21:55:18.558Z,90.60
2019-03-01T21:57:48.260Z,90.70
2019-03-01T22:00:29.744Z,90.70
2019-03-01T22:02:58.316Z,90.80
2019-03-01T22:05:26.724Z,90.80
2019-03-01T22:07:55.379Z,90.80
2019-03-01T22:10:23.872Z,90.80
2019-03-01T22:12:52.282Z,90.80
2019-03-01T22:15:30.053Z,90.80
2019-03-01T22:17:58.479Z,90.80
2019-03-01T22:20:26.966Z,90.80
2019-03-01T22:22:55.406Z,90.90
2019-03-01T22:25:23.927Z,90.90
2019-03-01T22:27:52.338Z,90.90
2019-03-01T22:30:33.814Z,90.90
2019-03-01T22:33:02.295Z,90.90
2019-03-01T22:35:30.706Z,90.90
2019-03-01T22:38:00.897Z,90.80
2019-03-01T22:40:29.556Z,90.80
2019-03-01T22:42:58.122Z,90.70
2019-03-01T22:45:26.822Z,90.60
2019-03-01T22:47:55.244Z,90.60
2019-03-01T22:50:23.683Z,90.60
2019-03-01T22:52:52.161Z,90.50
2019-03-01T22:55:20.738Z,90.40
2019-03-01T22:57:49.150Z,90.50
2019-03-01T23:00:48.026Z,90.40
2019-03-01T23:03:18.813Z,90.40
2019-03-01T23:05:47.332Z,90.40
2019-03-01T23:08:15.778Z,90.40
2019-03-01T23:10:44.259Z,90.30
2019-03-01T23:13:12.667Z,90.20
2019-03-01T23:15:43.340Z,90.30
2019-03-01T23:18:11.230Z,90.30
2019-03-01T23:20:39.751Z,90.30
2019-03-01T23:23:08.253Z,90.30
2019-03-01T23:25:36.735Z,90.30
2019-03-01T23:28:08.268Z,90.30
2019-03-01T23:30:35.353Z,90.30
2019-03-01T23:33:03.764Z,90.30
2019-03-01T23:35:32.314Z,90.30
2019-03-01T23:38:00.762Z,90.20
2019-03-01T23:40:29.174Z,90.30
2019-03-01T23:42:57.596Z,90.70
2019-03-01T23:45:26.026Z,90.30
2019-03-01T23:47:54.511Z,90.30
2019-03-01T23:50:22.934Z,90.20
2019-03-01T23:52:54.954Z,90.30
2019-03-01T23:55:21.641Z,90.30
2019-03-01T23:57:51.172Z,90.20
